Sao Tome, Sao Tome and Principe
Current Conditions -  °F | °C
As of 4:00 AM on Sunday 23 Nov 2014 (Local Time) from FPST Reporting Station
Broken Clouds Broken Clouds  
Wind Chill: 73°   Ceiling: 11000
Heat Index: 73°   Visibility: 6mi
Dew Point: 73°   Wind: 2mph
Humidity: 100%   Direction: 270°W
Pressure: 29.88"   Gusts: NA
Location:  0.37°N, 6.73°E
Report Text: FPST 230400Z 27002KT 9999 FEW020CB BKN110 23/23 Q1012 NOSIG
Loading
Personal Weather Stations






























Interactive Weather Map New forecast layout! Learn more

10-Day Weather Forecast

Advertisements
Track Severe Weather on mobile